createdAt,value
2023-04-05T00:01:16.023Z,0.50
2023-04-05T00:03:44.809Z,0.40
2023-04-05T00:06:16.789Z,0.30
2023-04-05T00:08:50.316Z,0.20
2023-04-05T00:11:19.023Z,0.20
2023-04-05T00:13:47.304Z,0.10
2023-04-05T00:16:16.218Z,0.10
2023-04-05T00:18:49.982Z,0.10
2023-04-05T00:21:21.870Z,0.10
2023-04-05T00:23:51.569Z,0.20
2023-04-05T00:26:20.380Z,0.20
2023-04-05T00:28:54.220Z,0.20
2023-04-05T00:31:22.627Z,0.30
2023-04-05T00:33:51.065Z,0.30
2023-04-05T00:36:22.036Z,0.30
2023-04-05T00:38:51.127Z,0.30
2023-04-05T00:41:19.556Z,0.30
2023-04-05T00:43:48.362Z,0.30
2023-04-05T00:46:16.976Z,0.20
2023-04-05T00:48:45.593Z,0.20
2023-04-05T00:51:13.905Z,0.10
2023-04-05T00:53:44.981Z,0.10
2023-04-05T00:56:14.898Z,0.00
2023-04-05T00:58:43.527Z,0.00
2023-04-05T01:01:17.849Z,0.00
2023-04-05T01:03:53.755Z,0.00
2023-04-05T01:06:57.950Z,-0.10
2023-04-05T01:09:37.530Z,-0.10
2023-04-05T01:12:08.647Z,-0.10
2023-04-05T01:14:46.021Z,-0.10
2023-04-05T01:17:14.416Z,-0.10
2023-04-05T01:19:47.996Z,-0.10
2023-04-05T01:22:52.065Z,-0.10
2023-04-05T01:25:38.895Z,-0.10
2023-04-05T01:28:31.475Z,0.00
2023-04-05T01:31:08.635Z,0.00
2023-04-05T01:33:42.654Z,-0.10
2023-04-05T01:36:20.630Z,-0.10
2023-04-05T01:38:51.996Z,-0.20
2023-04-05T01:41:21.548Z,-0.20
2023-04-05T01:43:49.784Z,-0.30
2023-04-05T01:46:19.415Z,-0.30
2023-04-05T01:48:49.270Z,-0.30
2023-04-05T01:51:17.662Z,-0.30
2023-04-05T01:53:46.697Z,-0.40
2023-04-05T01:56:15.994Z,-0.50
2023-04-05T01:58:44.330Z,-0.50
2023-04-05T02:01:12.687Z,-0.60
2023-04-05T02:03:42.383Z,-0.60
2023-04-05T02:06:10.755Z,-0.70
2023-04-05T02:08:38.996Z,-0.80
2023-04-05T02:11:07.240Z,-0.80
2023-04-05T02:13:35.788Z,-0.90
2023-04-05T02:16:04.162Z,-0.90
2023-04-05T02:18:33.544Z,-0.90
2023-04-05T02:21:08.083Z,-0.90
2023-04-05T02:23:36.380Z,-0.90
2023-04-05T02:26:05.530Z,-0.80
2023-04-05T02:28:34.441Z,-0.80
2023-04-05T02:31:02.652Z,-0.80
2023-04-05T02:33:31.125Z,-0.90
2023-04-05T02:35:59.395Z,-0.90
2023-04-05T02:38:29.011Z,-1.00
2023-04-05T02:40:57.239Z,-1.00
2023-04-05T02:43:25.935Z,-1.10
2023-04-05T02:45:54.121Z,-1.10
2023-04-05T02:48:22.432Z,-1.20
2023-04-05T02:50:52.253Z,-1.20
2023-04-05T02:53:21.267Z,-1.30
2023-04-05T02:55:59.853Z,-1.30
2023-04-05T02:58:29.620Z,-1.40
2023-04-05T03:00:57.877Z,-1.40
2023-04-05T03:03:34.248Z,-1.50
2023-04-05T03:06:10.040Z,-1.50
2023-04-05T03:08:46.497Z,-1.50
2023-04-05T03:11:18.430Z,-1.40
2023-04-05T03:13:51.397Z,-1.30
2023-04-05T03:16:40.484Z,-1.30
2023-04-05T03:19:24.244Z,-1.20
2023-04-05T03:21:55.992Z,-1.10
2023-04-05T03:24:34.577Z,-1.00
2023-04-05T03:27:06.318Z,-0.90
2023-04-05T03:30:08.050Z,-0.90
2023-04-05T03:32:41.364Z,-0.80
2023-04-05T03:35:22.258Z,-0.80
2023-04-05T03:37:51.460Z,-0.70
2023-04-05T03:40:20.527Z,-0.70
2023-04-05T03:42:50.643Z,-0.70
2023-04-05T03:45:23.796Z,-0.60
2023-04-05T03:47:53.540Z,-0.60
2023-04-05T03:50:22.252Z,-0.60
2023-04-05T03:52:50.691Z,-0.60
2023-04-05T03:55:19.069Z,-0.60
2023-04-05T03:57:49.954Z,-0.60
2023-04-05T04:00:24.676Z,-0.60
2023-04-05T04:03:10.508Z,-0.60
2023-04-05T04:05:43.137Z,-0.70
2023-04-05T04:08:13.670Z,-0.70
2023-04-05T04:10:42.052Z,-0.70
2023-04-05T04:13:22.521Z,-0.70
2023-04-05T04:16:09.192Z,-0.70
2023-04-05T04:18:57.620Z,-0.70
2023-04-05T04:21:25.906Z,-0.70
2023-04-05T04:24:18.737Z,-0.80
2023-04-05T04:27:10.730Z,-0.80
2023-04-05T04:30:04.262Z,-0.80
2023-04-05T04:32:58.091Z,-0.80
2023-04-05T04:35:47.774Z,-0.90
2023-04-05T04:38:34.864Z,-0.90
2023-04-05T04:41:12.586Z,-1.00
2023-04-05T04:44:14.975Z,-1.00
2023-04-05T04:47:23.003Z,-1.10
2023-04-05T04:50:27.051Z,-1.20
2023-04-05T04:52:55.294Z,-1.40
2023-04-05T04:55:25.317Z,-1.50
2023-04-05T04:57:54.610Z,-1.50
2023-04-05T05:00:24.249Z,-1.60
2023-04-05T05:02:54.725Z,-1.60
2023-04-05T05:05:23.506Z,-1.70
2023-04-05T05:07:52.721Z,-1.70
2023-04-05T05:10:21.872Z,-1.80
2023-04-05T05:12:51.020Z,-1.80
2023-04-05T05:15:20.037Z,-1.80
2023-04-05T05:17:52.907Z,-1.80
2023-04-05T05:20:23.166Z,-1.90
2023-04-05T05:22:51.482Z,-1.90
2023-04-05T05:25:20.145Z,-1.90
2023-04-05T05:27:50.002Z,-1.80
2023-04-05T05:30:18.498Z,-1.80
2023-04-05T05:32:46.695Z,-1.80
2023-04-05T05:35:15.053Z,-1.70
2023-04-05T05:37:44.599Z,-1.70
2023-04-05T05:40:13.592Z,-1.60
2023-04-05T05:42:41.729Z,-1.50
2023-04-05T05:45:11.261Z,-1.40
2023-04-05T05:47:39.449Z,-1.30
2023-04-05T05:50:09.990Z,-1.20
2023-04-05T05:52:38.266Z,-1.20
2023-04-05T05:55:09.364Z,-1.10
2023-04-05T05:57:38.812Z,-1.00
2023-04-05T06:00:10.811Z,-0.90
2023-04-05T06:02:43.220Z,-0.80
2023-04-05T06:05:11.432Z,-0.70
2023-04-05T06:07:39.774Z,-0.60
2023-04-05T06:10:10.238Z,-0.50
2023-04-05T06:12:38.387Z,-0.40
2023-04-05T06:15:07.876Z,-0.40
2023-04-05T06:17:41.769Z,-0.20
2023-04-05T06:20:12.060Z,-0.10
2023-04-05T06:22:41.400Z,-0.10
2023-04-05T06:25:12.876Z,0.00
2023-04-05T06:27:41.164Z,0.10
2023-04-05T06:30:10.412Z,0.20
2023-04-05T06:35:08.174Z,0.30
2023-04-05T06:37:36.252Z,0.40
2023-04-05T06:40:04.783Z,0.50
2023-04-05T06:42:34.323Z,0.60
2023-04-05T06:45:06.843Z,0.70
2023-04-05T06:47:35.723Z,0.90
2023-04-05T06:50:04.111Z,1.00
2023-04-05T06:52:32.225Z,1.10
2023-04-05T06:55:00.488Z,1.10
2023-04-05T06:57:28.673Z,1.20
2023-04-05T06:59:58.553Z,1.30
2023-04-05T07:02:26.927Z,1.40
2023-04-05T07:05:00.581Z,1.40
2023-04-05T07:07:28.907Z,1.50
2023-04-05T07:09:56.988Z,1.60
2023-04-05T07:12:25.092Z,1.70
2023-04-05T07:14:53.327Z,1.80
2023-04-05T07:17:23.247Z,1.90
2023-04-05T07:19:51.581Z,2.00
2023-04-05T07:22:19.722Z,2.10
2023-04-05T07:24:48.598Z,2.20
2023-04-05T07:27:17.348Z,2.30
2023-04-05T07:29:47.141Z,2.40
2023-04-05T07:32:16.352Z,2.50
2023-04-05T07:34:46.621Z,2.60
2023-04-05T07:37:15.091Z,2.70
2023-04-05T07:39:43.312Z,2.80
2023-04-05T07:42:11.442Z,2.90
2023-04-05T07:44:39.764Z,3.00
2023-04-05T07:47:07.905Z,3.10
2023-04-05T07:49:37.878Z,3.10
2023-04-05T07:52:07.444Z,3.30
2023-04-05T07:54:36.207Z,3.30
2023-04-05T07:57:04.522Z,3.40
2023-04-05T07:59:32.966Z,3.50
2023-04-05T08:02:08.229Z,3.60
2023-04-05T08:04:40.640Z,3.60
2023-04-05T08:07:10.309Z,3.70
2023-04-05T08:09:38.455Z,3.80
2023-04-05T08:12:07.098Z,3.80
2023-04-05T08:14:35.298Z,3.90
2023-04-05T08:17:03.616Z,4.00
2023-04-05T08:19:31.747Z,4.00
2023-04-05T08:21:59.918Z,4.10
2023-04-05T08:24:29.476Z,4.20
2023-04-05T08:26:57.740Z,4.30
2023-04-05T08:29:26.040Z,4.40
2023-04-05T08:31:54.283Z,4.50
2023-04-05T08:34:22.462Z,4.50
2023-04-05T08:36:50.683Z,4.60
2023-04-05T08:39:18.805Z,4.70
2023-04-05T08:42:01.910Z,4.80
2023-04-05T08:44:32.560Z,4.90
2023-04-05T08:47:01.503Z,4.90
2023-04-05T08:49:30.076Z,5.00
2023-04-05T08:52:00.274Z,5.10
2023-04-05T08:54:29.063Z,5.10
2023-04-05T08:57:01.194Z,5.20
2023-04-05T08:59:29.943Z,5.30
2023-04-05T09:02:00.464Z,5.40
2023-04-05T09:04:33.402Z,5.50
2023-04-05T09:07:05.395Z,5.60
2023-04-05T09:09:36.991Z,5.70
2023-04-05T09:12:08.763Z,5.70
2023-04-05T09:14:38.989Z,5.80
2023-04-05T09:17:07.811Z,5.90
2023-04-05T09:19:35.985Z,6.00
2023-04-05T09:22:06.479Z,6.00
2023-04-05T09:24:41.626Z,6.20
2023-04-05T09:27:12.293Z,6.20
2023-04-05T09:29:41.395Z,6.30
2023-04-05T09:32:11.829Z,6.40
2023-04-05T09:34:41.712Z,6.50
2023-04-05T09:37:18.373Z,6.60
2023-04-05T09:39:49.346Z,6.70
2023-04-05T09:42:22.726Z,6.80
2023-04-05T09:44:56.014Z,6.90
2023-04-05T09:47:27.388Z,6.90
2023-04-05T09:49:59.162Z,7.00
2023-04-05T09:52:29.573Z,7.10
2023-04-05T09:54:59.878Z,7.10
2023-04-05T09:57:30.632Z,7.20
2023-04-05T09:59:58.863Z,7.30
2023-04-05T10:02:36.280Z,7.40
2023-04-05T10:05:07.598Z,7.50
2023-04-05T10:07:36.720Z,7.60
2023-04-05T10:10:07.675Z,7.60
2023-04-05T10:12:41.427Z,7.70
2023-04-05T10:15:11.091Z,7.80
2023-04-05T10:17:49.360Z,7.90
2023-04-05T10:20:19.302Z,8.00
2023-04-05T10:23:01.792Z,8.00
2023-04-05T10:25:41.413Z,8.00
2023-04-05T10:28:13.350Z,8.20
2023-04-05T10:30:45.328Z,8.20
2023-04-05T10:33:21.631Z,8.40
2023-04-05T10:36:01.746Z,8.50
2023-04-05T10:38:36.774Z,8.60
2023-04-05T10:41:11.106Z,8.60
2023-04-05T10:43:42.641Z,8.70
2023-04-05T10:46:12.404Z,8.80
2023-04-05T10:48:49.513Z,8.90
2023-04-05T10:51:17.925Z,8.90
2023-04-05T10:53:49.326Z,9.10
2023-04-05T10:56:20.241Z,9.40
2023-04-05T10:58:51.839Z,10.10
2023-04-05T11:01:22.319Z,11.00
2023-04-05T11:03:51.597Z,11.90
2023-04-05T11:06:25.284Z,12.80
2023-04-05T11:08:56.425Z,13.60
2023-04-05T11:11:26.461Z,14.00
2023-04-05T11:13:56.880Z,14.50
2023-04-05T11:16:39.477Z,15.10
2023-04-05T11:19:07.769Z,15.80
2023-04-05T11:21:36.069Z,16.50
2023-04-05T11:24:07.641Z,17.20
2023-04-05T11:26:55.269Z,17.10
2023-04-05T11:29:51.792Z,17.60
2023-04-05T11:32:19.938Z,17.90
2023-04-05T11:35:00.854Z,17.90
2023-04-05T11:37:56.592Z,18.30
2023-04-05T11:40:26.036Z,18.40
2023-04-05T11:43:03.276Z,18.50
2023-04-05T11:45:33.965Z,19.00
2023-04-05T11:48:05.939Z,19.20
2023-04-05T11:50:34.813Z,19.50
2023-04-05T11:53:12.753Z,19.80
2023-04-05T11:55:42.660Z,20.20
2023-04-05T11:58:19.194Z,20.80
2023-04-05T12:00:58.347Z,21.20
2023-04-05T12:03:28.985Z,21.50
2023-04-05T12:05:59.188Z,21.20
2023-04-05T12:08:40.660Z,21.50
2023-04-05T12:11:10.194Z,21.50
2023-04-05T12:13:39.474Z,21.80
2023-04-05T12:16:10.534Z,22.20
2023-04-05T12:18:39.196Z,22.70
2023-04-05T12:21:09.595Z,22.90
2023-04-05T12:23:38.400Z,23.40
2023-04-05T12:26:09.119Z,23.90
2023-04-05T12:28:53.849Z,23.90
2023-04-05T12:31:40.187Z,23.80
2023-04-05T12:34:09.316Z,23.70
2023-04-05T12:36:38.859Z,23.70
2023-04-05T12:39:08.664Z,24.00
2023-04-05T12:41:37.951Z,23.70
2023-04-05T12:44:07.133Z,23.80
2023-04-05T12:46:44.517Z,24.20
2023-04-05T12:49:13.400Z,24.60
2023-04-05T12:51:44.298Z,24.00
2023-04-05T12:54:14.317Z,23.50
2023-04-05T12:56:42.577Z,23.60
2023-04-05T12:59:10.913Z,23.50
2023-04-05T13:01:39.488Z,24.10
2023-04-05T13:04:15.993Z,24.60
2023-04-05T13:06:47.197Z,25.30
2023-04-05T13:09:15.914Z,25.60
2023-04-05T13:11:44.042Z,25.90
2023-04-05T13:14:12.243Z,26.20
2023-04-05T13:16:40.528Z,26.50
2023-04-05T13:19:10.115Z,26.50
2023-04-05T13:21:38.196Z,25.70
2023-04-05T13:24:06.826Z,25.40
2023-04-05T13:26:35.536Z,25.80
2023-04-05T13:29:03.973Z,25.80
2023-04-05T13:31:33.513Z,26.30
2023-04-05T13:34:01.740Z,26.50
2023-04-05T13:36:31.430Z,26.60
2023-04-05T13:38:59.543Z,26.80
2023-04-05T13:41:27.800Z,27.10
2023-04-05T13:43:55.978Z,27.50
2023-04-05T13:46:24.290Z,27.60
2023-04-05T13:48:52.576Z,27.70
2023-04-05T13:51:20.888Z,27.80
2023-04-05T13:53:50.603Z,27.60
2023-04-05T13:56:18.834Z,28.00
2023-04-05T13:58:47.273Z,28.50
2023-04-05T14:01:15.622Z,29.10
2023-04-05T14:03:43.988Z,29.50
2023-04-05T14:06:12.369Z,30.00
2023-04-05T14:08:40.500Z,30.30
2023-04-05T14:11:09.990Z,30.00
2023-04-05T14:13:38.339Z,29.70
2023-04-05T14:16:07.559Z,29.40
2023-04-05T14:18:35.797Z,29.30
2023-04-05T14:21:04.114Z,29.20
2023-04-05T14:23:32.280Z,29.30
2023-04-05T14:26:00.469Z,29.40
2023-04-05T14:28:30.033Z,29.50
2023-04-05T14:30:58.878Z,29.70
2023-04-05T14:33:27.612Z,29.70
2023-04-05T14:35:56.133Z,29.50
2023-04-05T14:38:24.978Z,29.20
2023-04-05T14:40:53.211Z,29.00
2023-04-05T14:43:21.600Z,28.90
2023-04-05T14:45:51.188Z,28.90
2023-04-05T14:48:19.479Z,28.80
2023-04-05T14:50:47.680Z,28.80
2023-04-05T14:53:15.931Z,28.50
2023-04-05T14:55:44.479Z,28.60
2023-04-05T14:58:14.433Z,28.90
2023-04-05T15:00:43.057Z,29.50
2023-04-05T15:03:13.077Z,30.00
2023-04-05T15:05:41.390Z,30.50
2023-04-05T15:08:09.643Z,30.80
2023-04-05T15:10:38.154Z,31.00
2023-04-05T15:13:06.488Z,30.90
2023-04-05T15:15:34.818Z,30.80
2023-04-05T15:18:03.647Z,30.90
2023-04-05T15:20:33.701Z,30.80
2023-04-05T15:23:02.016Z,30.60
2023-04-05T15:25:30.412Z,30.10
2023-04-05T15:28:02.052Z,29.80
2023-04-05T15:30:32.387Z,29.60
2023-04-05T15:33:00.751Z,29.70
2023-04-05T15:35:29.307Z,30.00
2023-04-05T15:37:59.142Z,30.40
2023-04-05T15:40:29.123Z,30.50
2023-04-05T15:42:57.447Z,30.60
2023-04-05T15:45:25.697Z,30.50
2023-04-05T15:47:54.078Z,30.00
2023-04-05T15:50:22.403Z,29.50
2023-04-05T15:52:51.019Z,29.20
2023-04-05T15:55:20.909Z,29.00
2023-04-05T15:57:53.672Z,28.70
2023-04-05T16:00:22.583Z,28.60
2023-04-05T16:02:52.888Z,28.60
2023-04-05T16:05:24.248Z,28.70
2023-04-05T16:07:52.503Z,28.70
2023-04-05T16:10:22.257Z,28.60
2023-04-05T16:12:50.716Z,28.40
2023-04-05T16:15:19.139Z,28.30
2023-04-05T16:17:47.309Z,28.30
2023-04-05T16:20:15.669Z,28.30
2023-04-05T16:22:45.154Z,28.20
2023-04-05T16:25:13.409Z,28.00
2023-04-05T16:27:43.581Z,27.80
2023-04-05T16:30:12.680Z,27.80
2023-04-05T16:32:40.996Z,27.80
2023-04-05T16:35:10.151Z,27.90
2023-04-05T16:37:38.816Z,27.90
2023-04-05T16:40:10.197Z,27.90
2023-04-05T16:42:38.458Z,27.70
2023-04-05T16:45:09.237Z,27.70
2023-04-05T16:47:37.539Z,27.70
2023-04-05T16:50:06.589Z,27.70
2023-04-05T16:52:34.985Z,27.60
2023-04-05T16:55:03.358Z,27.40
2023-04-05T16:57:31.771Z,27.30
2023-04-05T16:59:59.940Z,27.20
2023-04-05T17:02:29.575Z,27.00
2023-04-05T17:04:57.832Z,26.80
2023-04-05T17:07:26.113Z,26.60
2023-04-05T17:09:54.338Z,26.40
2023-04-05T17:12:22.710Z,26.10
2023-04-05T17:14:50.981Z,25.80
2023-04-05T17:17:19.377Z,25.40
2023-04-05T17:19:48.983Z,25.00
2023-04-05T17:22:17.510Z,24.30
2023-04-05T17:24:46.975Z,23.30
2023-04-05T17:27:15.317Z,21.90
2023-04-05T17:29:43.554Z,20.60
2023-04-05T17:32:11.946Z,19.40
2023-04-05T17:34:40.183Z,18.20
2023-04-05T17:37:09.947Z,17.20
2023-04-05T17:39:38.146Z,16.30
2023-04-05T17:42:06.634Z,15.60
2023-04-05T17:44:35.175Z,14.90
2023-04-05T17:47:09.083Z,14.40
2023-04-05T17:49:38.051Z,13.80
2023-04-05T17:52:08.519Z,13.30
2023-04-05T17:54:39.429Z,12.90
2023-04-05T17:57:14.852Z,12.50
2023-04-05T17:59:43.764Z,12.10
2023-04-05T18:02:12.778Z,11.80
2023-04-05T18:04:41.832Z,11.50
2023-04-05T18:07:10.108Z,11.10
2023-04-05T18:09:42.000Z,10.90
2023-04-05T18:12:10.630Z,10.60
2023-04-05T18:14:39.062Z,10.40
2023-04-05T18:17:08.044Z,10.10
2023-04-05T18:19:36.779Z,9.90
2023-04-05T18:22:05.420Z,9.60
2023-04-05T18:24:33.672Z,9.40
2023-04-05T18:27:03.233Z,9.20
2023-04-05T18:29:32.985Z,9.00
2023-04-05T18:32:01.482Z,8.80
2023-04-05T18:34:29.784Z,8.60
2023-04-05T18:36:58.047Z,8.40
2023-04-05T18:39:27.623Z,8.30
2023-04-05T18:41:56.159Z,8.10
2023-04-05T18:44:26.130Z,7.90
2023-04-05T18:46:54.574Z,7.80
2023-04-05T18:49:22.751Z,7.60
2023-04-05T18:51:50.973Z,7.50
2023-04-05T18:54:19.339Z,7.40
2023-04-05T18:56:47.891Z,7.20
2023-04-05T18:59:16.290Z,7.10
2023-04-05T19:01:46.013Z,7.00
2023-04-05T19:04:16.324Z,6.90
2023-04-05T19:06:44.988Z,6.80
2023-04-05T19:09:13.357Z,6.80
2023-04-05T19:11:41.707Z,6.80
2023-04-05T19:14:10.449Z,6.70
2023-04-05T19:16:38.751Z,6.80
2023-04-05T19:19:08.794Z,6.80
2023-04-05T19:21:37.541Z,6.90
2023-04-05T19:24:07.621Z,6.90
2023-04-05T19:26:36.288Z,7.00
2023-04-05T19:29:04.919Z,6.90
2023-04-05T19:31:35.561Z,6.80
2023-04-05T19:34:04.115Z,6.70
2023-04-05T19:36:35.947Z,6.50
2023-04-05T19:39:06.002Z,6.30
2023-04-05T19:41:34.665Z,6.20
2023-04-05T19:44:10.239Z,6.00
2023-04-05T19:46:41.156Z,5.80
2023-04-05T19:49:11.407Z,5.70
2023-04-05T19:51:43.273Z,5.50
2023-04-05T19:54:14.801Z,5.30
2023-04-05T19:56:43.525Z,5.20
2023-04-05T19:59:28.934Z,5.00
2023-04-05T20:01:58.024Z,4.90
2023-04-05T20:04:28.007Z,4.70
2023-04-05T20:06:57.808Z,4.60
2023-04-05T20:09:28.853Z,4.50
2023-04-05T20:11:59.031Z,4.40
2023-04-05T20:14:30.448Z,4.40
2023-04-05T20:16:59.501Z,4.30
2023-04-05T20:19:32.389Z,4.20
2023-04-05T20:22:03.389Z,4.10
2023-04-05T20:24:32.230Z,4.00
2023-04-05T20:27:03.103Z,4.00
2023-04-05T20:29:32.351Z,3.90
2023-04-05T20:32:02.102Z,3.80
2023-04-05T20:34:32.213Z,3.80
2023-04-05T20:37:03.970Z,3.70
2023-04-05T20:39:32.514Z,3.60
2023-04-05T20:42:01.108Z,3.60
2023-04-05T20:44:29.364Z,3.50
2023-04-05T20:46:58.378Z,3.40
2023-04-05T20:49:29.896Z,3.40
2023-04-05T20:51:58.235Z,3.30
2023-04-05T20:54:28.019Z,3.20
2023-04-05T20:56:56.863Z,3.20
2023-04-05T20:59:27.353Z,3.10
2023-04-05T21:01:55.750Z,3.10
2023-04-05T21:04:24.207Z,3.00
2023-04-05T21:06:52.487Z,2.90
2023-04-05T21:09:21.261Z,2.90
2023-04-05T21:11:53.257Z,2.80
2023-04-05T21:14:21.498Z,2.80
2023-04-05T21:16:49.740Z,2.70
2023-04-05T21:19:18.974Z,2.60
2023-04-05T21:21:47.183Z,2.50
2023-04-05T21:24:15.772Z,2.50
2023-04-05T21:26:46.006Z,2.50
2023-04-05T21:29:15.724Z,2.40
2023-04-05T21:31:43.983Z,2.30
2023-04-05T21:34:12.227Z,2.30
2023-04-05T21:36:40.825Z,2.20
2023-04-05T21:39:09.826Z,2.20
2023-04-05T21:41:38.517Z,2.10
2023-04-05T21:44:07.140Z,2.10
2023-04-05T21:46:36.762Z,2.10
2023-04-05T21:49:05.333Z,2.00
2023-04-05T21:51:34.014Z,2.00
2023-04-05T21:54:02.549Z,2.00
2023-04-05T21:56:30.822Z,2.00
2023-04-05T21:58:59.224Z,2.00
2023-04-05T22:01:27.793Z,2.00
2023-04-05T22:03:57.684Z,2.00
2023-04-05T22:06:25.963Z,2.00
2023-04-05T22:08:54.684Z,2.00
2023-04-05T22:11:24.877Z,2.00
2023-04-05T22:13:53.672Z,2.00
2023-04-05T22:16:22.214Z,2.00
2023-04-05T22:18:50.507Z,2.00
2023-04-05T22:21:20.167Z,2.00
2023-04-05T22:23:48.532Z,1.90
2023-04-05T22:26:16.781Z,1.90
2023-04-05T22:28:45.066Z,1.80
2023-04-05T22:31:14.750Z,1.80
2023-04-05T22:33:43.047Z,1.80
2023-04-05T22:36:11.408Z,1.70
2023-04-05T22:38:41.395Z,1.70
2023-04-05T22:41:09.610Z,1.70
2023-04-05T22:43:37.954Z,1.60
2023-04-05T22:46:06.414Z,1.50
2023-04-05T22:48:34.862Z,1.50
2023-04-05T22:51:03.344Z,1.40
2023-04-05T22:53:31.777Z,1.40
2023-04-05T22:56:01.559Z,1.40
2023-04-05T22:58:32.701Z,1.40
2023-04-05T23:01:02.552Z,1.40
2023-04-05T23:03:31.166Z,1.30
2023-04-05T23:05:59.602Z,1.30
2023-04-05T23:08:27.891Z,1.30
2023-04-05T23:10:56.435Z,1.30
2023-04-05T23:13:26.081Z,1.30
2023-04-05T23:15:54.511Z,1.20
2023-04-05T23:18:23.017Z,1.20
2023-04-05T23:20:51.694Z,1.30
2023-04-05T23:23:19.974Z,1.30
2023-04-05T23:25:48.275Z,1.30
2023-04-05T23:28:16.528Z,1.20
2023-04-05T23:30:46.158Z,1.20
2023-04-05T23:33:14.417Z,1.20
2023-04-05T23:35:42.752Z,1.10
2023-04-05T23:38:11.412Z,1.10
2023-04-05T23:40:39.648Z,1.00
2023-04-05T23:43:07.774Z,1.00
2023-04-05T23:45:36.025Z,0.90
2023-04-05T23:48:06.102Z,0.90
2023-04-05T23:50:34.374Z,0.80
2023-04-05T23:53:03.296Z,0.90
2023-04-05T23:55:32.808Z,0.90
2023-04-05T23:58:01.444Z,1.00
